createdAt,value
2023-03-22T00:01:15.389Z,6.80
2023-03-22T00:06:10.049Z,5.90
2023-03-22T00:08:37.282Z,5.05
2023-03-22T00:11:05.068Z,5.95
2023-03-22T00:13:35.462Z,6.50
2023-03-22T00:16:02.942Z,6.07
2023-03-22T00:18:30.626Z,6.28
2023-03-22T00:20:59.717Z,6.00
2023-03-22T00:23:27.744Z,6.20
2023-03-22T00:25:54.714Z,5.78
2023-03-22T00:31:04.216Z,6.22
2023-03-22T00:33:31.966Z,6.32
2023-03-22T00:36:01.428Z,5.80
2023-03-22T00:38:42.113Z,5.40
2023-03-22T00:41:17.744Z,5.07
2023-03-22T00:43:46.134Z,5.53
2023-03-22T00:46:14.446Z,5.93
2023-03-22T00:48:41.903Z,5.95
2023-03-22T00:51:11.688Z,5.50
2023-03-22T00:53:42.613Z,5.88
2023-03-22T00:56:16.748Z,5.93
2023-03-22T00:58:49.060Z,5.90
2023-03-22T01:01:16.159Z,5.50
2023-03-22T01:03:44.080Z,5.95
2023-03-22T01:06:14.737Z,5.53
2023-03-22T01:08:44.923Z,5.93
2023-03-22T01:11:12.640Z,6.22
2023-03-22T01:13:41.864Z,6.20
2023-03-22T01:16:10.021Z,5.88
2023-03-22T01:18:37.571Z,6.32
2023-03-22T01:21:05.345Z,6.43
2023-03-22T01:23:32.486Z,6.40
2023-03-22T01:25:59.566Z,6.15
2023-03-22T01:28:27.440Z,6.45
2023-03-22T01:30:55.707Z,6.72
2023-03-22T01:33:23.055Z,6.45
2023-03-22T01:35:51.699Z,5.88
2023-03-22T01:38:20.013Z,6.63
2023-03-22T01:40:54.725Z,6.43
2023-03-22T01:43:22.747Z,6.28
2023-03-22T01:45:54.090Z,6.38
2023-03-22T01:48:35.906Z,6.70
2023-03-22T01:51:22.684Z,6.25
2023-03-22T01:54:10.453Z,6.57
2023-03-22T01:56:40.782Z,6.18
2023-03-22T01:59:14.488Z,7.20
2023-03-22T02:02:05.015Z,6.38
2023-03-22T02:04:39.312Z,7.05
2023-03-22T02:07:15.681Z,6.65
2023-03-22T02:09:46.826Z,7.05
2023-03-22T02:12:38.896Z,6.78
2023-03-22T02:15:21.811Z,6.35
2023-03-22T02:18:11.577Z,6.78
2023-03-22T02:21:04.490Z,6.63
2023-03-22T02:23:59.914Z,6.20
2023-03-22T02:26:52.047Z,5.38
2023-03-22T02:29:31.295Z,6.18
2023-03-22T02:32:04.722Z,5.97
2023-03-22T02:34:40.807Z,6.47
2023-03-22T02:37:14.012Z,5.63
2023-03-22T02:39:54.217Z,6.07
2023-03-22T02:42:28.757Z,6.30
2023-03-22T02:45:29.261Z,6.22
2023-03-22T02:47:59.592Z,6.43
2023-03-22T02:53:03.217Z,6.22
2023-03-22T02:56:02.237Z,6.47
2023-03-22T03:01:07.376Z,6.70
2023-03-22T03:03:40.252Z,6.78
2023-03-22T03:06:16.725Z,6.75
2023-03-22T03:08:46.899Z,6.75
2023-03-22T03:11:14.523Z,6.32
2023-03-22T03:13:42.063Z,6.75
2023-03-22T03:16:17.444Z,6.38
2023-03-22T03:18:51.226Z,5.60
2023-03-22T03:21:18.304Z,5.97
2023-03-22T03:23:54.103Z,6.28
2023-03-22T03:26:26.976Z,6.40
2023-03-22T03:29:16.361Z,6.65
2023-03-22T03:32:08.443Z,5.90
2023-03-22T03:34:55.136Z,6.15
2023-03-22T03:37:28.403Z,5.97
2023-03-22T03:40:09.888Z,5.85
2023-03-22T03:42:45.071Z,6.13
2023-03-22T03:45:14.313Z,6.15
2023-03-22T03:47:44.738Z,5.70
2023-03-22T03:50:15.722Z,5.95
2023-03-22T03:52:43.325Z,6.07
2023-03-22T03:55:10.654Z,6.10
2023-03-22T03:57:37.584Z,6.30
2023-03-22T04:00:05.967Z,5.85
2023-03-22T04:02:49.210Z,5.60
2023-03-22T04:05:37.393Z,5.93
2023-03-22T04:08:05.247Z,6.20
2023-03-22T04:10:33.433Z,6.25
2023-03-22T04:13:00.458Z,5.65
2023-03-22T04:15:27.677Z,5.57
2023-03-22T04:17:57.850Z,5.45
2023-03-22T04:20:30.300Z,6.05
2023-03-22T04:22:58.762Z,5.82
2023-03-22T04:25:30.788Z,5.90
2023-03-22T04:28:09.741Z,6.85
2023-03-22T04:30:38.959Z,5.57
2023-03-22T04:33:39.586Z,6.00
2023-03-22T04:36:25.623Z,6.35
2023-03-22T04:39:15.425Z,5.93
2023-03-22T04:41:50.650Z,5.75
2023-03-22T04:44:17.670Z,5.78
2023-03-22T04:46:49.630Z,5.80
2023-03-22T04:49:17.154Z,5.72
2023-03-22T04:51:44.239Z,6.32
2023-03-22T04:54:34.199Z,6.30
2023-03-22T04:57:02.480Z,5.80
2023-03-22T04:59:35.508Z,5.40
2023-03-22T05:02:02.776Z,5.82
2023-03-22T05:04:37.174Z,5.40
2023-03-22T05:07:12.820Z,5.65
2023-03-22T05:09:47.004Z,5.80
2023-03-22T05:12:15.130Z,6.20
2023-03-22T05:14:49.293Z,4.85
2023-03-22T05:17:22.451Z,5.38
2023-03-22T05:19:52.005Z,6.03
2023-03-22T05:22:19.381Z,6.55
2023-03-22T05:24:49.381Z,6.00
2023-03-22T05:27:31.579Z,5.68
2023-03-22T05:30:21.645Z,5.88
2023-03-22T05:33:10.145Z,6.13
2023-03-22T05:35:43.403Z,5.90
2023-03-22T05:38:11.538Z,5.90
2023-03-22T05:40:43.887Z,5.85
2023-03-22T05:43:11.461Z,6.13
2023-03-22T05:45:43.010Z,5.95
2023-03-22T05:48:33.370Z,5.70
2023-03-22T05:51:00.767Z,5.38
2023-03-22T05:53:33.070Z,5.80
2023-03-22T05:56:13.191Z,5.65
2023-03-22T05:58:42.447Z,5.25
2023-03-22T06:01:16.540Z,6.22
2023-03-22T06:03:43.457Z,6.57
2023-03-22T06:06:22.241Z,6.15
2023-03-22T06:09:10.695Z,5.97
2023-03-22T06:11:43.155Z,5.80
2023-03-22T06:14:10.281Z,5.25
2023-03-22T06:16:53.175Z,5.32
2023-03-22T06:19:20.093Z,5.43
2023-03-22T06:21:47.102Z,5.20
2023-03-22T06:24:15.864Z,4.80
2023-03-22T06:26:42.833Z,5.30
2023-03-22T06:29:09.850Z,4.82
2023-03-22T06:31:37.096Z,4.68
2023-03-22T06:34:06.747Z,5.05
2023-03-22T06:36:38.604Z,5.03
2023-03-22T06:39:10.772Z,5.20
2023-03-22T06:41:38.871Z,5.25
2023-03-22T06:44:06.032Z,5.07
2023-03-22T06:47:05.244Z,4.75
2023-03-22T06:49:52.719Z,5.55
2023-03-22T06:52:26.733Z,7.13
2023-03-22T06:54:53.835Z,6.60
2023-03-22T06:57:20.837Z,7.40
2023-03-22T06:59:47.759Z,5.72
2023-03-22T07:02:14.817Z,4.50
2023-03-22T07:04:53.876Z,4.00
2023-03-22T07:07:21.455Z,4.20
2023-03-22T07:09:48.545Z,4.45
2023-03-22T07:12:16.064Z,4.05
2023-03-22T07:14:45.934Z,4.30
2023-03-22T07:17:35.486Z,4.22
2023-03-22T07:20:04.075Z,3.67
2023-03-22T07:22:31.576Z,4.15
2023-03-22T07:25:01.294Z,4.13
2023-03-22T07:27:31.130Z,3.97
2023-03-22T07:29:58.883Z,3.80
2023-03-22T07:32:26.132Z,3.45
2023-03-22T07:35:19.603Z,3.92
2023-03-22T07:37:48.619Z,3.88
2023-03-22T07:40:22.292Z,3.83
2023-03-22T07:42:52.635Z,3.72
2023-03-22T07:45:35.818Z,4.18
2023-03-22T07:48:39.199Z,4.18
2023-03-22T07:51:24.855Z,4.13
2023-03-22T07:53:52.702Z,4.10
2023-03-22T07:56:20.085Z,4.20
2023-03-22T07:58:47.501Z,3.78
2023-03-22T08:01:14.478Z,3.45
2023-03-22T08:04:10.753Z,4.15
2023-03-22T08:07:00.103Z,3.75
2023-03-22T08:09:28.393Z,3.90
2023-03-22T08:11:56.815Z,3.67
2023-03-22T08:14:34.050Z,3.78
2023-03-22T08:17:05.779Z,3.88
2023-03-22T08:19:34.377Z,3.83
2023-03-22T08:22:02.212Z,3.83
2023-03-22T08:24:52.699Z,3.80
2023-03-22T08:27:29.879Z,3.85
2023-03-22T08:29:58.771Z,4.38
2023-03-22T08:32:25.826Z,4.22
2023-03-22T08:34:54.909Z,4.40
2023-03-22T08:37:21.943Z,3.85
2023-03-22T08:39:48.960Z,3.40
2023-03-22T08:42:26.548Z,3.60
2023-03-22T08:44:53.513Z,3.85
2023-03-22T08:47:24.157Z,4.00
2023-03-22T08:49:56.369Z,3.67
2023-03-22T08:52:31.450Z,3.85
2023-03-22T08:55:03.597Z,3.90
2023-03-22T08:57:50.422Z,4.05
2023-03-22T09:00:48.634Z,3.90
2023-03-22T09:03:25.057Z,3.90
2023-03-22T09:05:52.424Z,3.47
2023-03-22T09:08:20.168Z,3.40
2023-03-22T09:10:52.409Z,3.42
2023-03-22T09:13:22.029Z,3.15
2023-03-22T09:15:54.837Z,3.58
2023-03-22T09:18:25.015Z,3.38
2023-03-22T09:20:53.064Z,3.45
2023-03-22T09:23:24.404Z,2.72
2023-03-22T09:25:51.481Z,3.30
2023-03-22T09:28:24.207Z,2.60
2023-03-22T09:30:52.795Z,2.63
2023-03-22T09:33:20.886Z,2.85
2023-03-22T09:35:51.154Z,2.40
2023-03-22T09:38:18.113Z,2.63
2023-03-22T09:41:02.220Z,2.60
2023-03-22T09:43:43.724Z,2.60
2023-03-22T09:46:18.975Z,2.67
2023-03-22T09:48:48.449Z,2.35
2023-03-22T09:54:02.194Z,2.80
2023-03-22T09:56:32.188Z,2.40
2023-03-22T09:59:27.188Z,3.03
2023-03-22T10:02:05.079Z,3.08
2023-03-22T10:04:50.317Z,2.75
2023-03-22T10:07:45.461Z,3.15
2023-03-22T10:10:20.336Z,3.10
2023-03-22T10:13:16.553Z,3.20
2023-03-22T10:15:57.112Z,2.97
2023-03-22T10:18:30.217Z,3.50
2023-03-22T10:21:07.984Z,3.30
2023-03-22T10:23:44.229Z,3.28
2023-03-22T10:26:24.732Z,3.33
2023-03-22T10:29:06.076Z,3.30
2023-03-22T10:31:34.397Z,3.30
2023-03-22T10:34:31.123Z,3.38
2023-03-22T10:37:01.665Z,3.58
2023-03-22T10:39:39.777Z,3.58
2023-03-22T10:42:12.909Z,3.60
2023-03-22T10:44:53.732Z,2.80
2023-03-22T10:47:49.942Z,3.13
2023-03-22T10:50:28.646Z,3.85
2023-03-22T10:53:02.106Z,3.30
2023-03-22T10:55:29.368Z,2.80
2023-03-22T10:58:07.059Z,2.85
2023-03-22T11:00:34.002Z,2.97
2023-03-22T11:03:01.946Z,3.38
2023-03-22T11:05:30.326Z,3.25
2023-03-22T11:07:59.140Z,3.20
2023-03-22T11:10:35.114Z,3.10
2023-03-22T11:13:08.926Z,2.47
2023-03-22T11:15:39.648Z,2.67
2023-03-22T11:18:12.695Z,3.10
2023-03-22T11:20:42.642Z,2.90
2023-03-22T11:23:18.081Z,3.13
2023-03-22T11:25:49.659Z,2.80
2023-03-22T11:28:26.147Z,2.92
2023-03-22T11:31:04.150Z,2.75
2023-03-22T11:33:32.113Z,2.60
2023-03-22T11:36:03.517Z,3.03
2023-03-22T11:38:40.604Z,2.60
2023-03-22T11:41:18.364Z,2.40
2023-03-22T11:43:49.053Z,2.30
2023-03-22T11:46:19.489Z,2.72
2023-03-22T11:48:49.353Z,1.80
2023-03-22T11:51:27.933Z,2.05
2023-03-22T11:54:05.953Z,1.90
2023-03-22T11:56:33.014Z,1.55
2023-03-22T11:59:07.539Z,2.00
2023-03-22T12:01:51.385Z,1.70
2023-03-22T12:04:24.451Z,1.90
2023-03-22T12:06:55.359Z,1.80
2023-03-22T12:09:46.831Z,1.95
2023-03-22T12:12:23.209Z,2.35
2023-03-22T12:15:01.417Z,2.00
2023-03-22T12:17:34.336Z,1.67
2023-03-22T12:20:08.715Z,2.03
2023-03-22T12:22:41.842Z,2.28
2023-03-22T12:25:17.798Z,2.13
2023-03-22T12:27:50.040Z,2.40
2023-03-22T12:30:27.162Z,1.85
2023-03-22T12:33:01.949Z,2.03
2023-03-22T12:35:33.418Z,2.00
2023-03-22T12:38:08.863Z,2.08
2023-03-22T12:40:39.729Z,2.20
2023-03-22T12:43:17.869Z,1.83
2023-03-22T12:45:53.430Z,1.45
2023-03-22T12:48:36.481Z,1.67
2023-03-22T12:51:07.172Z,2.00
2023-03-22T12:53:42.509Z,1.90
2023-03-22T12:56:12.865Z,1.80
2023-03-22T13:01:10.903Z,1.60
2023-03-22T13:06:37.617Z,1.90
2023-03-22T13:09:16.342Z,1.40
2023-03-22T13:11:48.887Z,1.48
2023-03-22T13:14:50.132Z,1.58
2023-03-22T13:17:23.215Z,1.40
2023-03-22T13:20:11.655Z,1.80
2023-03-22T13:22:38.963Z,1.42
2023-03-22T13:25:16.996Z,1.40
2023-03-22T13:27:50.889Z,2.30
2023-03-22T13:30:21.726Z,1.50
2023-03-22T13:33:13.098Z,1.63
2023-03-22T13:35:44.748Z,1.60
2023-03-22T13:38:17.785Z,1.52
2023-03-22T13:41:00.165Z,1.50
2023-03-22T13:43:34.406Z,1.35
2023-03-22T13:46:01.293Z,1.75
2023-03-22T13:48:55.421Z,1.77
2023-03-22T13:51:30.421Z,1.73
2023-03-22T13:54:20.562Z,1.45
2023-03-22T13:56:57.006Z,1.48
2023-03-22T13:59:33.859Z,1.73
2023-03-22T14:02:35.881Z,1.50
2023-03-22T14:05:23.031Z,1.70
2023-03-22T14:07:56.727Z,1.40
2023-03-22T14:10:47.504Z,1.20
2023-03-22T14:13:38.272Z,1.40
2023-03-22T14:16:21.796Z,1.20
2023-03-22T14:18:50.294Z,1.30
2023-03-22T14:21:23.634Z,1.55
2023-03-22T14:54:26.661Z,0.95
2023-03-22T14:56:53.717Z,1.00
2023-03-22T14:59:21.688Z,1.00
2023-03-22T15:01:58.115Z,0.82
2023-03-22T15:04:25.729Z,1.10
2023-03-22T15:06:58.942Z,1.02
2023-03-22T15:09:26.613Z,1.00
2023-03-22T15:12:01.991Z,1.00
2023-03-22T15:14:31.343Z,0.95
2023-03-22T15:16:58.456Z,1.10
2023-03-22T15:19:27.196Z,0.98
2023-03-22T15:22:05.652Z,1.10
2023-03-22T15:24:38.144Z,1.05
2023-03-22T15:27:12.406Z,1.02
2023-03-22T15:29:44.167Z,1.10
2023-03-22T15:32:19.664Z,1.10
2023-03-22T15:34:48.643Z,1.10
2023-03-22T15:37:30.764Z,1.17
2023-03-22T15:39:58.820Z,1.00
2023-03-22T15:42:29.211Z,1.10
2023-03-22T15:45:01.829Z,1.10
2023-03-22T15:47:43.090Z,1.30
2023-03-22T15:50:10.497Z,1.30
2023-03-22T15:52:47.265Z,1.05
2023-03-22T15:55:20.276Z,1.30
2023-03-22T15:58:02.580Z,1.20
2023-03-22T16:00:37.483Z,1.30
2023-03-22T16:03:07.587Z,1.30
2023-03-22T16:05:37.177Z,1.20
2023-03-22T16:08:05.978Z,1.40
2023-03-22T16:10:35.783Z,1.40
2023-03-22T16:13:19.488Z,1.20
2023-03-22T16:15:46.790Z,1.33
2023-03-22T16:18:24.459Z,1.60
2023-03-22T16:20:53.627Z,1.30
2023-03-22T16:23:23.073Z,1.30
2023-03-22T16:25:50.787Z,1.47
2023-03-22T16:28:18.690Z,1.50
2023-03-22T16:30:48.940Z,1.40
2023-03-22T16:35:46.146Z,1.33
2023-03-22T16:38:14.596Z,1.27
2023-03-22T16:40:47.417Z,1.40
2023-03-22T16:43:14.492Z,1.10
2023-03-22T16:45:43.658Z,1.45
2023-03-22T16:48:10.857Z,1.48
2023-03-22T16:50:41.896Z,1.10
2023-03-22T16:53:15.776Z,1.25
2023-03-22T16:55:43.038Z,1.10
2023-03-22T16:58:10.434Z,1.25
2023-03-22T17:00:37.768Z,1.15
2023-03-22T17:03:07.921Z,1.38
2023-03-22T17:05:37.786Z,1.30
2023-03-22T17:08:06.248Z,1.10
2023-03-22T17:10:33.496Z,0.82
2023-03-22T17:13:00.703Z,0.82
2023-03-22T17:15:32.419Z,1.27
2023-03-22T17:18:00.398Z,0.93
2023-03-22T17:20:29.273Z,1.05
2023-03-22T17:22:57.806Z,1.17
2023-03-22T17:25:31.357Z,1.10
2023-03-22T17:28:01.374Z,1.13
2023-03-22T17:30:30.403Z,1.23
2023-03-22T17:32:59.879Z,1.20
2023-03-22T17:35:30.939Z,1.20
2023-03-22T17:37:59.199Z,1.20
2023-03-22T17:40:33.098Z,1.33
2023-03-22T17:43:05.913Z,1.20
2023-03-22T17:46:09.143Z,1.15
2023-03-22T17:48:23.867Z,1.00
2023-03-22T17:50:51.168Z,1.30
2023-03-22T17:53:40.550Z,1.00
2023-03-22T17:56:44.256Z,1.30
2023-03-22T17:58:54.284Z,1.02
2023-03-22T18:01:23.736Z,1.20
2023-03-22T18:03:51.380Z,1.17
2023-03-22T18:06:18.485Z,1.10
2023-03-22T18:08:45.597Z,1.45
2023-03-22T18:11:16.490Z,1.20
2023-03-22T18:13:44.486Z,1.20
2023-03-22T18:16:12.121Z,1.23
2023-03-22T18:18:39.254Z,1.20
2023-03-22T18:21:08.773Z,1.52
2023-03-22T18:23:36.294Z,1.30
2023-03-22T18:26:08.169Z,1.40
2023-03-22T18:28:44.046Z,1.67
2023-03-22T18:31:12.608Z,1.65
2023-03-22T18:33:40.614Z,1.48
2023-03-22T18:36:08.841Z,1.40
2023-03-22T18:39:07.193Z,1.63
2023-03-22T18:43:53.235Z,1.50
2023-03-22T18:46:20.967Z,1.65
2023-03-22T18:48:49.627Z,1.55
2023-03-22T18:51:16.742Z,2.47
2023-03-22T18:53:43.740Z,1.63
2023-03-22T18:56:11.515Z,1.60
2023-03-22T18:58:38.629Z,1.48
2023-03-22T19:01:06.390Z,1.60
2023-03-22T19:03:35.732Z,1.85
2023-03-22T19:06:04.979Z,1.55
2023-03-22T19:08:31.979Z,1.80
2023-03-22T19:10:59.090Z,1.58
2023-03-22T19:13:26.142Z,1.52
2023-03-22T19:15:55.206Z,1.70
2023-03-22T19:18:22.345Z,1.60
2023-03-22T19:21:06.014Z,1.50
2023-03-22T19:23:36.485Z,1.65
2023-03-22T19:26:05.311Z,1.70
2023-03-22T19:31:00.618Z,2.40
2023-03-22T19:33:39.807Z,3.35
2023-03-22T19:36:14.724Z,3.40
2023-03-22T19:38:42.782Z,3.47
2023-03-22T19:43:40.902Z,3.40
2023-03-22T19:46:09.134Z,4.35
2023-03-22T19:48:36.351Z,3.45
2023-03-22T19:51:04.506Z,2.88
2023-03-22T19:56:10.857Z,2.85
2023-03-22T19:58:38.282Z,2.88
2023-03-22T20:01:09.900Z,3.80
2023-03-22T20:03:40.942Z,4.38
2023-03-22T20:06:11.486Z,2.88
2023-03-22T20:11:07.051Z,2.40
2023-03-22T20:13:34.772Z,2.80
2023-03-22T20:16:04.551Z,2.50
2023-03-22T20:18:31.574Z,2.67
2023-03-22T20:20:58.767Z,2.60
2023-03-22T20:23:27.085Z,2.65
2023-03-22T20:26:01.977Z,2.75
2023-03-22T20:28:33.336Z,2.50
2023-03-22T20:31:12.148Z,2.40
2023-03-22T20:33:39.893Z,3.05
2023-03-22T20:36:08.472Z,2.60
2023-03-22T20:38:36.315Z,2.83
2023-03-22T20:41:03.747Z,2.90
2023-03-22T20:43:31.221Z,3.05
2023-03-22T20:45:58.243Z,3.10
2023-03-22T20:48:25.499Z,3.00
2023-03-22T20:50:53.938Z,2.75
2023-03-22T20:53:22.393Z,2.80
2023-03-22T20:55:49.959Z,2.78
2023-03-22T20:58:17.725Z,3.95
2023-03-22T21:00:45.482Z,4.80
2023-03-22T21:03:13.678Z,3.90
2023-03-22T21:05:43.746Z,3.92
2023-03-22T21:08:10.938Z,3.08
2023-03-22T21:10:38.321Z,3.10
2023-03-22T21:13:05.823Z,3.40
2023-03-22T21:15:33.238Z,2.97
2023-03-22T21:18:00.371Z,3.20
2023-03-22T21:20:32.696Z,3.25
2023-03-22T21:23:00.001Z,4.30
2023-03-22T21:25:27.056Z,3.60
2023-03-22T21:27:54.220Z,3.25
2023-03-22T21:30:21.626Z,3.78
2023-03-22T21:32:48.584Z,3.45
2023-03-22T21:35:15.906Z,2.88
2023-03-22T21:37:43.213Z,3.80
2023-03-22T21:40:12.398Z,4.00
2023-03-22T21:42:46.969Z,4.80
2023-03-22T21:45:14.951Z,4.22
2023-03-22T21:47:43.645Z,4.30
2023-03-22T21:50:11.359Z,4.00
2023-03-22T21:52:38.571Z,4.45
2023-03-22T21:55:06.642Z,4.50
2023-03-22T21:57:33.664Z,4.20
2023-03-22T22:00:00.695Z,3.90
2023-03-22T22:02:27.947Z,4.72
2023-03-22T22:04:55.035Z,4.50
2023-03-22T22:07:22.839Z,4.35
2023-03-22T22:09:50.105Z,4.32
2023-03-22T22:12:17.356Z,4.43
2023-03-22T22:14:44.502Z,3.75
2023-03-22T22:17:14.970Z,4.00
2023-03-22T22:19:42.227Z,3.70
2023-03-22T22:22:09.279Z,3.42
2023-03-22T22:24:36.308Z,2.83
2023-03-22T22:27:03.433Z,3.28
2023-03-22T22:29:30.563Z,3.58
2023-03-22T22:31:57.649Z,4.18
2023-03-22T22:34:24.834Z,3.08
2023-03-22T22:36:51.953Z,3.92
2023-03-22T22:39:19.071Z,3.75
2023-03-22T22:41:46.120Z,3.90
2023-03-22T22:44:13.218Z,3.80
2023-03-22T22:46:40.191Z,2.70
2023-03-22T22:49:07.174Z,3.30
2023-03-22T22:51:34.227Z,3.72
2023-03-22T22:54:01.252Z,3.88
2023-03-22T22:56:29.210Z,3.47
2023-03-22T22:58:56.258Z,3.35
2023-03-22T23:01:23.377Z,3.50
2023-03-22T23:03:50.546Z,3.53
2023-03-22T23:06:21.205Z,3.10
2023-03-22T23:08:50.705Z,4.22
2023-03-22T23:11:19.938Z,3.40
2023-03-22T23:13:47.473Z,4.15
2023-03-22T23:16:22.428Z,3.70
2023-03-22T23:18:56.197Z,3.53
2023-03-22T23:21:30.887Z,3.53
2023-03-22T23:23:57.889Z,3.35
2023-03-22T23:26:25.206Z,4.50
2023-03-22T23:28:59.210Z,3.30
2023-03-22T23:31:32.005Z,3.30
2023-03-22T23:34:03.566Z,3.50
2023-03-22T23:36:32.634Z,3.85
2023-03-22T23:39:04.971Z,3.22
2023-03-22T23:41:33.267Z,3.60
2023-03-22T23:44:00.630Z,3.42
2023-03-22T23:46:29.587Z,3.00
2023-03-22T23:48:58.371Z,3.10
2023-03-22T23:51:26.036Z,3.50
2023-03-22T23:53:53.126Z,3.08
2023-03-22T23:56:22.874Z,4.13
2023-03-22T23:58:51.471Z,3.22
